TimeEST,TemperatureF,Dew PointF,Humidity,Sea Level PressureIn,VisibilityMPH,Wind Direction,Wind SpeedMPH,Gust SpeedMPH,PrecipitationIn,Events,Conditions,WindDirDegrees,DateUTC
12:51 AM,12.9,3.9,67,30.33,10.0,Calm,Calm,-,N/A,,Clear,0,2013-02-11 05:51:00
1:51 AM,10.0,1.9,70,30.32,10.0,WNW,3.5,-,N/A,,Clear,300,2013-02-11 06:51:00
2:51 AM,10.9,3.0,70,30.30,10.0,West,4.6,-,N/A,,Clear,280,2013-02-11 07:51:00
3:51 AM,9.0,3.0,77,30.27,10.0,WNW,5.8,-,N/A,,Clear,290,2013-02-11 08:51:00
4:51 AM,10.9,3.0,70,30.27,10.0,West,5.8,-,N/A,,Clear,280,2013-02-11 09:51:00
5:51 AM,12.0,3.9,70,30.24,10.0,Calm,Calm,-,N/A,,Mostly Cloudy,0,2013-02-11 10:51:00
6:51 AM,14.0,6.1,71,30.23,10.0,WNW,3.5,-,N/A,,Mostly Cloudy,290,2013-02-11 11:51:00
7:51 AM,16.0,8.1,71,30.20,10.0,Calm,Calm,-,N/A,,Mostly Cloudy,0,2013-02-11 12:51:00
8:51 AM,19.0,9.0,65,30.19,10.0,Calm,Calm,-,N/A,,Overcast,0,2013-02-11 13:51:00
9:51 AM,21.9,12.0,66,30.15,5.0,Calm,Calm,-,0.00,Snow,Light Snow,0,2013-02-11 14:51:00
10:31 AM,23.0,15.1,72,30.11,1.0,WNW,3.5,-,0.01,Snow,Light Snow,300,2013-02-11 15:31:00
10:47 AM,23.0,17.6,80,30.10,0.8,NNW,3.5,-,0.02,Snow,Light Snow,340,2013-02-11 15:47:00
10:51 AM,24.1,18.0,77,30.10,0.8,Calm,Calm,-,0.02,Snow,Light Snow,0,2013-02-11 15:51:00
11:35 AM,25.0,21.9,88,30.05,0.8,Calm,Calm,-,0.04,Snow,Light Snow,0,2013-02-11 16:35:00
11:51 AM,24.1,21.9,91,30.04,0.5,Calm,Calm,-,0.06,Snow,Snow,0,2013-02-11 16:51:00
12:24 PM,25.0,23.0,92,29.99,0.5,Calm,Calm,-,0.06,Fog-Snow,Snow,0,2013-02-11 17:24:00
12:51 PM,27.0,24.1,89,29.96,0.8,ENE,3.5,-,0.10,Snow,Light Snow,70,2013-02-11 17:51:00
1:10 PM,28.9,27.0,92,29.93,0.8,ENE,4.6,-,0.02,Rain,Light Freezing Rain,60,2013-02-11 18:10:00
1:37 PM,32.0,30.0,92,29.89,1.0,ENE,4.6,-,0.05,Rain,Light Rain,70,2013-02-11 18:37:00
1:51 PM,34.0,32.0,92,29.87,1.5,East,3.5,-,0.08,Rain,Light Rain,90,2013-02-11 18:51:00
2:51 PM,39.0,39.0,100,29.82,1.5,SSE,9.2,-,0.15,Rain,Rain,160,2013-02-11 19:51:00
3:51 PM,39.9,39.0,97,29.79,1.5,SW,5.8,-,0.07,Rain,Light Rain,220,2013-02-11 20:51:00
4:51 PM,33.1,32.0,96,29.73,1.5,WNW,10.4,-,0.02,,Overcast,300,2013-02-11 21:51:00
5:51 PM,32.0,30.0,92,29.71,1.5,WNW,8.1,-,N/A,,Overcast,300,2013-02-11 22:51:00
6:51 PM,30.9,28.9,92,29.69,2.0,NW,6.9,-,0.00,,Overcast,320,2013-02-11 23:51:00
7:51 PM,30.9,28.9,92,29.66,3.0,West,4.6,-,N/A,,Overcast,280,2013-02-12 00:51:00
8:51 PM,30.9,28.9,92,29.64,3.0,WNW,5.8,-,N/A,,Overcast,290,2013-02-12 01:51:00
9:51 PM,30.9,28.9,92,29.62,9.0,WNW,4.6,-,N/A,,Overcast,290,2013-02-12 02:51:00
10:51 PM,30.0,28.9,96,29.60,10.0,WNW,6.9,-,0.00,,Overcast,290,2013-02-12 03:51:00
11:01 PM,30.0,28.9,96,29.59,10.0,West,3.5,-,N/A,,Overcast,280,2013-02-12 04:01:00
11:24 PM,30.9,28.9,92,29.59,9.0,WNW,5.8,-,N/A,,Overcast,290,2013-02-12 04:24:00
11:51 PM,30.0,28.9,96,29.59,9.0,West,3.5,-,N/A,,Overcast,270,2013-02-12 04:51:00